Time;durP1;ratioP1;P1;durP2;ratioP2;P2;SDS_P1;SDS_P2;PMS_P1;PMS_P2;Temp;Humidity;BMP_temperature;BMP_pressure;BME280_temperature;BME280_humidity;BME280_pressure;Samples;Min_cycle;Max_cycle;Signal;HPM_P1;HPM_P2
2021/03/16 00:00:06;;;;;;;14.80;2.67;;;7.30;99.90;;;;;;5053832;28;20257;-46
2021/03/16 00:02:33;;;;;;;6.40;1.80;;;7.30;99.90;;;;;;5054904;28;20636;-46
2021/03/16 00:04:59;;;;;;;9.87;2.33;;;7.20;99.90;;;;;;5052931;28;20679;-45
2021/03/16 00:07:26;;;;;;;13.70;2.57;;;7.30;99.90;;;;;;5053324;28;20239;-45
2021/03/16 00:09:52;;;;;;;18.97;3.17;;;7.30;99.90;;;;;;5052149;28;20257;-46
2021/03/16 00:12:18;;;;;;;9.80;2.17;;;7.40;99.90;;;;;;5053709;28;20250;-46
2021/03/16 00:14:45;;;;;;;6.67;1.67;;;7.30;99.90;;;;;;5043022;28;20287;-45
2021/03/16 00:17:12;;;;;;;8.07;2.30;;;7.30;99.90;;;;;;5057393;28;20205;-45
2021/03/16 00:19:38;;;;;;;13.70;2.40;;;7.30;99.90;;;;;;5055747;28;20290;-45
2021/03/16 00:22:06;;;;;;;15.90;2.53;;;7.40;99.90;;;;;;5057682;28;20203;-45
2021/03/16 00:24:33;;;;;;;14.17;2.23;;;7.30;99.90;;;;;;5057236;28;20199;-44
2021/03/16 00:26:59;;;;;;;8.20;1.67;;;7.30;99.90;;;;;;5058994;28;20288;-44
2021/03/16 00:29:25;;;;;;;12.87;2.70;;;7.40;99.90;;;;;;5055410;28;20207;-44
2021/03/16 00:31:52;;;;;;;19.33;2.87;;;7.40;99.90;;;;;;5056024;28;20207;-44
2021/03/16 00:34:18;;;;;;;8.73;2.23;;;7.40;99.90;;;;;;5056644;28;20193;-45
2021/03/16 00:36:44;;;;;;;8.27;2.20;;;7.40;99.90;;;;;;5059639;28;20250;-45
2021/03/16 00:39:12;;;;;;;10.07;2.93;;;7.40;99.90;;;;;;5055062;28;20213;-45
2021/03/16 00:41:38;;;;;;;19.20;2.73;;;7.40;99.90;;;;;;5058878;28;20265;-45
2021/03/16 00:44:05;;;;;;;21.50;2.83;;;7.40;99.90;;;;;;5059292;28;20200;-45
2021/03/16 00:46:32;;;;;;;12.53;2.17;;;7.40;99.90;;;;;;5054339;28;20200;-45
2021/03/16 00:48:58;;;;;;;11.33;1.90;;;7.30;99.90;;;;;;5056008;28;20771;-45
2021/03/16 00:51:25;;;;;;;12.23;1.90;;;7.30;99.90;;;;;;5055851;28;20274;-45
2021/03/16 00:53:51;;;;;;;16.07;1.97;;;7.40;99.90;;;;;;5053185;28;20199;-45
2021/03/16 00:56:17;;;;;;;10.83;2.53;;;7.30;99.90;;;;;;5055541;28;20274;-44
2021/03/16 00:58:44;;;;;;;10.97;2.83;;;7.30;99.90;;;;;;5057947;28;20710;-44
2021/03/16 01:01:10;;;;;;;17.17;2.83;;;7.40;99.90;;;;;;5053783;28;20527;-47
2021/03/16 01:03:37;;;;;;;20.30;2.83;;;7.30;99.90;;;;;;5054064;28;20204;-45
2021/03/16 01:06:04;;;;;;;10.43;2.33;;;7.30;99.90;;;;;;5052372;28;20343;-44
2021/03/16 01:08:30;;;;;;;11.47;2.20;;;7.20;99.90;;;;;;5054166;28;21407;-45
2021/03/16 01:10:58;;;;;;;15.67;2.17;;;7.20;99.90;;;;;;5055266;28;20670;-44
2021/03/16 01:13:26;;;;;;;14.30;2.23;;;7.10;99.90;;;;;;5055807;28;20646;-44
2021/03/16 01:15:53;;;;;;;16.13;1.90;;;7.20;99.90;;;;;;5056655;28;20607;-45
2021/03/16 01:18:20;;;;;;;12.43;2.00;;;7.10;99.90;;;;;;5058738;28;20204;-44
2021/03/16 01:20:46;;;;;;;11.47;1.53;;;7.20;99.90;;;;;;5052734;28;20277;-45
2021/03/16 01:23:13;;;;;;;10.97;2.43;;;7.20;99.90;;;;;;5057141;28;20230;-45
2021/03/16 01:25:59;;;;;;;15.13;2.33;;;7.20;99.90;;;;;;5054307;28;20246;-44
2021/03/16 01:28:25;;;;;;;12.60;2.53;;;7.30;99.90;;;;;;5057632;28;20239;-44
2021/03/16 01:30:52;;;;;;;14.20;2.20;;;7.20;99.90;;;;;;5056469;28;20884;-45
2021/03/16 01:33:19;;;;;;;18.70;2.80;;;7.20;99.90;;;;;;5055171;28;20600;-45
2021/03/16 01:35:45;;;;;;;11.10;2.13;;;7.10;99.90;;;;;;5054085;28;20273;-46
2021/03/16 01:38:11;;;;;;;12.53;2.43;;;7.10;99.90;;;;;;5038952;28;20283;-44
2021/03/16 01:40:39;;;;;;;11.23;2.20;;;7.00;99.90;;;;;;5054461;28;20203;-46
2021/03/16 01:43:16;;;;;;;15.40;2.17;;;7.10;99.90;;;;;;5055245;28;20678;-46
2021/03/16 01:45:46;;;;;;;13.00;2.30;;;7.20;99.90;;;;;;5054861;28;20273;-45
2021/03/16 01:48:16;;;;;;;17.53;1.80;;;7.10;99.90;;;;;;5055677;28;20211;-45
2021/03/16 01:50:43;;;;;;;11.10;2.00;;;7.20;99.90;;;;;;5051973;28;20248;-45
2021/03/16 01:53:10;;;;;;;9.43;2.47;;;7.10;99.90;;;;;;5054485;28;20240;-44
2021/03/16 01:55:37;;;;;;;12.57;2.30;;;7.00;99.90;;;;;;5053579;28;20240;-45
2021/03/16 01:58:03;;;;;;;18.43;2.90;;;6.90;99.90;;;;;;5058010;28;20192;-45
2021/03/16 02:00:39;;;;;;;5.53;1.63;;;7.00;99.90;;;;;;5052087;28;20214;-44
2021/03/16 02:03:09;;;;;;;11.50;1.90;;;7.00;99.90;;;;;;5052541;28;20208;-45
2021/03/16 02:05:38;;;;;;;9.30;1.80;;;7.10;99.90;;;;;;5052254;28;20289;-44
2021/03/16 02:08:39;;;;;;;13.70;2.43;;;7.00;99.90;;;;;;5050104;28;20295;-44
2021/03/16 02:11:28;;;;;;;8.60;1.83;;;7.10;99.90;;;;;;5046952;28;20201;-44
2021/03/16 02:14:16;;;;;;;12.37;1.70;;;7.10;99.90;;;;;;5056446;28;20660;-44
2021/03/16 02:16:53;;;;;;;13.30;2.20;;;7.20;99.90;;;;;;5055449;28;20222;-45
2021/03/16 02:19:52;;;;;;;13.70;1.83;;;7.10;99.90;;;;;;5037237;28;20263;-45
2021/03/16 02:22:20;;;;;;;11.43;1.93;;;7.20;99.90;;;;;;5052373;28;20300;-45
2021/03/16 02:25:05;;;;;;;10.77;1.47;;;7.30;99.90;;;;;;5055288;28;20198;-45
2021/03/16 02:27:48;;;;;;;11.53;1.47;;;7.10;99.90;;;;;;5053451;28;20232;-45
2021/03/16 02:30:17;;;;;;;8.70;2.53;;;7.20;99.90;;;;;;5056422;28;20290;-44
2021/03/16 02:32:45;;;;;;;10.60;1.70;;;7.20;99.90;;;;;;5055363;28;21219;-45
2021/03/16 02:35:14;;;;;;;17.53;1.70;;;7.10;99.90;;;;;;5054446;28;20210;-45
2021/03/16 02:37:42;;;;;;;13.90;1.97;;;7.20;99.90;;;;;;5037711;28;20221;-45
2021/03/16 02:40:10;;;;;;;7.33;1.87;;;7.20;99.90;;;;;;5053349;28;20199;-45
2021/03/16 02:42:38;;;;;;;11.13;2.70;;;7.20;99.90;;;;;;5055840;28;20646;-45
2021/03/16 02:45:09;;;;;;;12.17;2.43;;;7.20;99.90;;;;;;5054119;28;20233;-45
2021/03/16 02:47:38;;;;;;;6.50;2.20;;;7.20;99.90;;;;;;5054910;28;20201;-45
2021/03/16 02:50:09;;;;;;;12.27;2.03;;;7.20;99.90;;;;;;5051659;28;20644;-45
2021/03/16 02:52:54;;;;;;;8.57;2.13;;;7.20;99.90;;;;;;5053297;28;20233;-45
2021/03/16 02:55:24;;;;;;;14.73;2.00;;;7.20;99.90;;;;;;5053801;28;20227;-45
2021/03/16 02:57:51;;;;;;;8.37;1.57;;;7.20;99.90;;;;;;5054288;28;20620;-45
2021/03/16 03:00:19;;;;;;;9.27;1.73;;;7.20;99.90;;;;;;5053151;28;20616;-44
2021/03/16 03:02:47;;;;;;;11.03;1.97;;;7.10;99.90;;;;;;5055012;28;20198;-44
2021/03/16 03:05:14;;;;;;;13.57;1.97;;;7.10;99.90;;;;;;5051781;28;20262;-45
2021/03/16 03:07:42;;;;;;;9.40;1.73;;;7.20;99.90;;;;;;5052316;28;20276;-45
2021/03/16 03:10:09;;;;;;;11.43;2.07;;;7.20;99.90;;;;;;5052768;28;20706;-45
2021/03/16 03:12:36;;;;;;;7.87;2.13;;;7.20;99.90;;;;;;5050518;28;20315;-45
2021/03/16 03:15:08;;;;;;;15.77;2.40;;;7.20;99.90;;;;;;5055667;28;20241;-44
2021/03/16 03:17:37;;;;;;;9.67;2.30;;;7.30;99.90;;;;;;5053105;28;20204;-44
2021/03/16 03:20:09;;;;;;;18.77;1.93;;;7.30;99.90;;;;;;5053500;28;20679;-45
2021/03/16 03:22:43;;;;;;;15.23;2.37;;;7.20;99.90;;;;;;5049801;28;20215;-44
2021/03/16 03:25:22;;;;;;;6.30;2.00;;;7.30;99.90;;;;;;5054317;28;20655;-44
2021/03/16 03:27:56;;;;;;;15.33;2.07;;;7.30;99.90;;;;;;5056649;28;20238;-45
2021/03/16 03:30:24;;;;;;;15.77;2.43;;;7.20;99.90;;;;;;5057319;28;20262;-45
2021/03/16 03:32:54;;;;;;;6.77;1.40;;;7.10;99.90;;;;;;5053761;28;20203;-45
2021/03/16 03:35:21;;;;;;;7.80;2.00;;;7.10;99.90;;;;;;5052799;28;20220;-45
2021/03/16 03:37:49;;;;;;;6.40;1.27;;;7.10;99.90;;;;;;5052467;28;20219;-44
2021/03/16 03:40:16;;;;;;;6.90;1.33;;;7.20;99.90;;;;;;5053294;28;20718;-44
2021/03/16 03:42:44;;;;;;;8.40;1.77;;;7.10;99.90;;;;;;5054892;28;20210;-45
2021/03/16 03:45:11;;;;;;;10.30;2.07;;;7.10;99.90;;;;;;5054545;28;20243;-45
2021/03/16 03:47:40;;;;;;;13.23;1.80;;;7.20;99.90;;;;;;5053296;28;20246;-45
2021/03/16 03:50:10;;;;;;;7.80;1.37;;;7.20;99.90;;;;;;5036136;28;20210;-44
2021/03/16 03:52:37;;;;;;;9.13;2.20;;;7.20;99.90;;;;;;5056492;28;20585;-44
2021/03/16 03:55:05;;;;;;;6.23;1.30;;;7.30;99.90;;;;;;5056467;28;20312;-44
2021/03/16 03:57:52;;;;;;;8.47;1.67;;;7.30;99.90;;;;;;5057200;28;20203;-44
2021/03/16 04:00:20;;;;;;;6.53;1.27;;;7.20;99.90;;;;;;5036861;28;20195;-44
2021/03/16 04:02:47;;;;;;;14.57;1.87;;;7.30;99.90;;;;;;5054698;28;20241;-44
2021/03/16 04:05:15;;;;;;;7.33;1.40;;;7.30;99.90;;;;;;5057972;28;20198;-44
2021/03/16 04:07:42;;;;;;;5.93;1.33;;;7.30;99.90;;;;;;5058535;28;20263;-45
2021/03/16 04:10:10;;;;;;;9.07;1.57;;;7.20;99.90;;;;;;5056536;28;20234;-44
2021/03/16 04:12:38;;;;;;;12.33;1.73;;;7.20;99.90;;;;;;5055889;28;20616;-45
2021/03/16 04:15:10;;;;;;;12.10;1.80;;;7.30;99.90;;;;;;5059769;28;20242;-44
2021/03/16 04:17:37;;;;;;;9.77;1.67;;;7.20;99.90;;;;;;5052805;28;20216;-44
2021/03/16 04:20:06;;;;;;;16.73;2.57;;;7.20;99.90;;;;;;5055244;28;20269;-45
2021/03/16 04:22:33;;;;;;;10.63;1.10;;;7.20;99.90;;;;;;5058953;28;20268;-44
2021/03/16 04:24:59;;;;;;;12.90;2.40;;;7.20;99.90;;;;;;5057083;28;20235;-44
2021/03/16 04:27:26;;;;;;;8.83;1.60;;;7.20;99.90;;;;;;5057279;28;20203;-44
2021/03/16 04:29:52;;;;;;;5.23;0.93;;;7.20;99.90;;;;;;5056760;28;20286;-44
2021/03/16 04:32:19;;;;;;;5.37;1.60;;;7.20;99.90;;;;;;5056556;28;20291;-45
2021/03/16 04:34:46;;;;;;;9.30;1.57;;;7.20;99.90;;;;;;5036342;28;20287;-45
2021/03/16 04:37:13;;;;;;;4.37;1.53;;;7.20;99.90;;;;;;5038756;28;20248;-45
2021/03/16 04:39:39;;;;;;;10.80;1.70;;;7.30;99.90;;;;;;5039361;28;20200;-44
2021/03/16 04:42:06;;;;;;;10.23;1.70;;;7.30;99.90;;;;;;5058074;28;20220;-45
2021/03/16 04:44:33;;;;;;;5.47;1.40;;;7.20;99.90;;;;;;5057656;28;20301;-45
2021/03/16 04:46:59;;;;;;;11.00;1.40;;;7.30;99.90;;;;;;5058720;28;20259;-44
2021/03/16 04:49:25;;;;;;;10.33;2.00;;;7.20;99.90;;;;;;5056794;28;20622;-45
2021/03/16 04:51:52;;;;;;;7.60;1.60;;;7.30;99.90;;;;;;5057322;28;20336;-45
2021/03/16 04:54:18;;;;;;;9.57;1.77;;;7.30;99.90;;;;;;5056082;28;20235;-44
2021/03/16 04:56:44;;;;;;;11.53;2.03;;;7.40;99.90;;;;;;5058713;28;20704;-45
2021/03/16 04:59:11;;;;;;;8.33;1.67;;;7.40;99.90;;;;;;5056427;28;20364;-44
2021/03/16 05:01:37;;;;;;;17.03;2.17;;;7.40;99.90;;;;;;5057360;28;20229;-44
2021/03/16 05:04:04;;;;;;;15.67;2.87;;;7.30;99.90;;;;;;5055255;28;20255;-44
2021/03/16 05:06:30;;;;;;;9.50;1.53;;;7.20;99.90;;;;;;5055322;28;20199;-45
2021/03/16 05:08:57;;;;;;;11.90;1.80;;;7.30;99.90;;;;;;5055947;28;20203;-44
2021/03/16 05:11:24;;;;;;;14.50;2.57;;;7.20;99.90;;;;;;5055044;28;20222;-44
2021/03/16 05:13:51;;;;;;;14.13;2.27;;;7.20;99.90;;;;;;5057352;28;20629;-45
2021/03/16 05:16:17;;;;;;;4.77;1.50;;;7.20;99.90;;;;;;5057907;28;20558;-45
2021/03/16 05:18:44;;;;;;;8.57;1.47;;;7.20;99.90;;;;;;5055860;28;20275;-44
2021/03/16 05:21:10;;;;;;;13.50;2.10;;;7.20;99.90;;;;;;5056927;28;20227;-44
2021/03/16 05:23:36;;;;;;;7.60;1.23;;;7.20;99.90;;;;;;5055774;28;20224;-44
2021/03/16 05:26:03;;;;;;;8.90;1.80;;;7.10;99.90;;;;;;5051526;28;20285;-44
2021/03/16 05:28:29;;;;;;;16.40;1.50;;;7.20;99.90;;;;;;5057034;28;20268;-45
2021/03/16 05:30:55;;;;;;;13.13;2.10;;;7.30;99.90;;;;;;5057958;28;20540;-44
2021/03/16 05:33:22;;;;;;;8.63;1.60;;;7.20;99.90;;;;;;5054763;28;21090;-44
2021/03/16 05:35:48;;;;;;;7.53;1.97;;;7.20;99.90;;;;;;5057663;28;20317;-44
2021/03/16 05:38:15;;;;;;;7.70;1.30;;;7.00;99.90;;;;;;5054413;28;20207;-45
2021/03/16 05:40:42;;;;;;;11.87;2.00;;;7.20;99.90;;;;;;5043106;28;20247;-44
2021/03/16 05:43:10;;;;;;;8.87;1.40;;;7.20;99.90;;;;;;5053812;28;21058;-44
2021/03/16 05:45:39;;;;;;;9.03;2.20;;;7.20;99.90;;;;;;5055337;28;20270;-45
2021/03/16 05:48:10;;;;;;;11.57;2.43;;;7.20;99.90;;;;;;5055419;28;20227;-45
2021/03/16 05:50:37;;;;;;;10.57;1.77;;;7.30;99.90;;;;;;5053339;28;20241;-45
2021/03/16 05:53:05;;;;;;;10.83;1.70;;;7.20;99.90;;;;;;5037283;28;20302;-45
2021/03/16 05:55:31;;;;;;;9.33;1.60;;;7.10;99.90;;;;;;5055772;28;20242;-45
2021/03/16 05:58:02;;;;;;;13.10;1.97;;;7.10;99.90;;;;;;5055794;28;20284;-45
2021/03/16 06:00:28;;;;;;;12.23;2.17;;;7.10;99.90;;;;;;5057114;28;20336;-46
2021/03/16 06:02:55;;;;;;;9.50;1.20;;;7.10;99.90;;;;;;5036103;28;20682;-44
2021/03/16 06:05:21;;;;;;;8.33;1.47;;;7.20;99.90;;;;;;5055257;28;20211;-44
2021/03/16 06:07:50;;;;;;;10.80;2.27;;;7.10;99.90;;;;;;5052154;28;20261;-44
2021/03/16 06:10:19;;;;;;;13.17;2.10;;;7.10;99.90;;;;;;5053451;28;20220;-44
2021/03/16 06:12:45;;;;;;;13.97;1.90;;;7.10;99.90;;;;;;5046242;28;20207;-45
2021/03/16 06:15:17;;;;;;;18.60;1.73;;;7.00;99.90;;;;;;5054321;28;20592;-44
2021/03/16 06:17:48;;;;;;;12.83;1.93;;;7.20;99.90;;;;;;5053651;28;20303;-44
2021/03/16 06:20:30;;;;;;;11.43;2.50;;;7.30;99.90;;;;;;5052552;28;20213;-45
2021/03/16 06:23:07;;;;;;;13.43;1.83;;;7.30;99.90;;;;;;5036648;28;20207;-43
2021/03/16 06:25:41;;;;;;;9.90;2.43;;;7.30;99.90;;;;;;5052966;28;20639;-44
2021/03/16 06:28:14;;;;;;;7.40;1.53;;;7.40;99.90;;;;;;5054350;28;20214;-45
2021/03/16 06:30:41;;;;;;;8.07;2.20;;;7.40;99.90;;;;;;5054506;28;20213;-45
2021/03/16 06:33:19;;;;;;;14.90;1.67;;;7.40;99.90;;;;;;5055078;28;20249;-45
2021/03/16 06:36:02;;;;;;;8.87;1.33;;;7.40;99.90;;;;;;5054894;28;20297;-45
2021/03/16 06:38:30;;;;;;;7.90;1.53;;;7.40;99.90;;;;;;5055178;28;20290;-45
2021/03/16 06:41:14;;;;;;;14.67;2.73;;;7.40;99.90;;;;;;5052698;28;20195;-45
2021/03/16 06:43:50;;;;;;;10.10;1.70;;;7.40;99.90;;;;;;5056750;28;20199;-44
2021/03/16 06:46:33;;;;;;;16.23;2.27;;;7.50;99.90;;;;;;5054960;28;20205;-45
2021/03/16 06:49:11;;;;;;;19.33;2.70;;;7.50;99.90;;;;;;5056168;28;20272;-45
2021/03/16 06:51:37;;;;;;;7.53;1.70;;;7.50;99.90;;;;;;5050580;28;20339;-45
2021/03/16 06:54:11;;;;;;;6.77;1.50;;;7.60;99.90;;;;;;5054219;28;20232;-44
2021/03/16 06:56:38;;;;;;;12.07;1.90;;;7.50;99.90;;;;;;5051271;28;20325;-45
2021/03/16 06:59:05;;;;;;;12.43;1.77;;;7.60;99.90;;;;;;5054966;28;20204;-45
2021/03/16 07:01:33;;;;;;;4.73;1.47;;;7.50;99.90;;;;;;5050760;28;20260;-45
2021/03/16 07:04:12;;;;;;;11.10;1.70;;;7.60;99.90;;;;;;5054530;28;20256;-46
2021/03/16 07:06:40;;;;;;;13.30;2.27;;;7.70;99.90;;;;;;5053195;28;20262;-46
2021/03/16 07:09:12;;;;;;;14.97;2.17;;;7.60;99.90;;;;;;5054251;28;20209;-45
2021/03/16 07:11:46;;;;;;;15.63;2.27;;;7.60;99.90;;;;;;5042601;28;20229;-45
2021/03/16 07:14:14;;;;;;;10.63;1.87;;;7.60;99.90;;;;;;5053937;28;20251;-45
2021/03/16 07:16:42;;;;;;;11.40;2.10;;;7.70;99.90;;;;;;5048575;28;20214;-45
2021/03/16 07:19:09;;;;;;;12.47;1.90;;;7.70;99.90;;;;;;5045800;28;20333;-45
2021/03/16 07:21:48;;;;;;;11.47;1.70;;;7.80;99.90;;;;;;5049376;28;20202;-45
2021/03/16 07:24:18;;;;;;;14.37;2.30;;;7.80;99.90;;;;;;5053836;28;20325;-45
2021/03/16 07:26:45;;;;;;;8.73;1.80;;;7.80;99.90;;;;;;5057496;28;20372;-46
2021/03/16 07:29:11;;;;;;;13.17;2.07;;;7.90;99.90;;;;;;5060036;28;20199;-45
2021/03/16 07:31:58;;;;;;;9.87;1.80;;;8.00;99.90;;;;;;5060409;28;20201;-45
2021/03/16 07:34:25;;;;;;;9.23;2.87;;;8.00;99.90;;;;;;5060895;28;20206;-45
2021/03/16 07:36:53;;;;;;;10.23;1.67;;;8.10;99.90;;;;;;5060563;28;20285;-46
2021/03/16 07:39:22;;;;;;;9.20;1.80;;;8.00;99.90;;;;;;5059351;28;20251;-43
2021/03/16 07:41:49;;;;;;;11.20;1.90;;;8.10;99.90;;;;;;5060416;28;20223;-45
2021/03/16 07:44:17;;;;;;;12.47;2.17;;;8.00;99.90;;;;;;5061077;28;20201;-45
2021/03/16 07:47:02;;;;;;;15.57;2.17;;;8.00;99.90;;;;;;5060136;28;20208;-45
2021/03/16 07:49:35;;;;;;;7.53;1.40;;;8.10;99.90;;;;;;5058442;28;20726;-45
2021/03/16 07:52:02;;;;;;;10.20;2.20;;;8.10;99.90;;;;;;5060416;28;20291;-45
2021/03/16 07:54:37;;;;;;;7.30;2.37;;;8.00;99.90;;;;;;5058622;28;20208;-45
2021/03/16 07:57:05;;;;;;;11.60;2.00;;;8.10;99.90;;;;;;5059305;28;20289;-45
2021/03/16 07:59:36;;;;;;;13.57;2.30;;;8.10;99.90;;;;;;5051687;28;20206;-45
2021/03/16 08:02:05;;;;;;;8.80;1.70;;;8.10;99.90;;;;;;5042586;28;20342;-45
2021/03/16 08:04:39;;;;;;;9.77;2.20;;;8.10;99.90;;;;;;5057613;28;20207;-46
2021/03/16 08:07:08;;;;;;;13.03;1.77;;;8.20;99.90;;;;;;5058181;28;20239;-46
2021/03/16 08:09:57;;;;;;;10.67;1.87;;;8.00;99.90;;;;;;5057929;28;20248;-44
2021/03/16 08:12:28;;;;;;;5.83;1.67;;;8.10;99.90;;;;;;5057718;28;20306;-44
2021/03/16 08:15:08;;;;;;;13.30;1.87;;;8.00;99.90;;;;;;5057334;28;20630;-46
2021/03/16 08:17:35;;;;;;;10.73;1.73;;;8.10;99.90;;;;;;5057535;28;20260;-45
2021/03/16 08:20:03;;;;;;;12.07;1.83;;;8.10;99.90;;;;;;5057256;28;20197;-45
2021/03/16 08:22:30;;;;;;;16.90;1.60;;;8.10;99.90;;;;;;5055871;28;20243;-45
2021/03/16 08:25:05;;;;;;;9.83;2.50;;;8.10;99.90;;;;;;5058351;28;20266;-45
2021/03/16 08:27:36;;;;;;;5.60;1.90;;;8.10;99.90;;;;;;5058198;28;20230;-45
2021/03/16 08:30:07;;;;;;;10.47;2.03;;;8.00;99.90;;;;;;5058104;28;20202;-45
2021/03/16 08:32:37;;;;;;;11.97;1.83;;;8.00;99.90;;;;;;5047961;28;20237;-44
2021/03/16 08:35:04;;;;;;;4.37;1.80;;;8.20;99.90;;;;;;5054404;28;20277;-44
2021/03/16 08:37:33;;;;;;;5.70;1.50;;;8.10;99.90;;;;;;5055807;28;20281;-44
2021/03/16 08:40:24;;;;;;;10.00;1.70;;;8.10;99.90;;;;;;5052252;28;20227;-45
2021/03/16 08:42:51;;;;;;;10.30;1.53;;;8.10;99.90;;;;;;5057262;28;20214;-44
2021/03/16 08:45:29;;;;;;;7.70;1.70;;;8.20;99.90;;;;;;5054707;28;20700;-46
2021/03/16 08:47:56;;;;;;;3.90;1.40;;;8.20;99.90;;;;;;5052969;28;20195;-44
2021/03/16 08:50:27;;;;;;;11.73;2.47;;;8.20;99.90;;;;;;5057462;28;20270;-44
2021/03/16 08:52:53;;;;;;;7.47;2.07;;;8.20;99.90;;;;;;5057291;28;20205;-44
2021/03/16 08:55:27;;;;;;;9.77;1.63;;;8.20;99.90;;;;;;5055041;28;20682;-44
2021/03/16 08:57:54;;;;;;;8.53;1.67;;;8.30;99.90;;;;;;5054017;28;20258;-44
2021/03/16 09:00:26;;;;;;;13.50;2.07;;;8.40;99.90;;;;;;5053085;28;20202;-44
2021/03/16 09:02:53;;;;;;;12.50;2.27;;;8.40;99.90;;;;;;5058462;28;20200;-46
2021/03/16 09:05:27;;;;;;;19.23;2.53;;;8.50;99.90;;;;;;5054994;28;20196;-44
2021/03/16 09:07:57;;;;;;;17.00;3.40;;;8.40;99.90;;;;;;5059435;28;20199;-45
2021/03/16 09:10:24;;;;;;;6.53;2.00;;;8.50;99.90;;;;;;5042809;28;20211;-44
2021/03/16 09:12:51;;;;;;;7.83;1.73;;;8.30;99.90;;;;;;5056994;28;20284;-45
2021/03/16 09:15:26;;;;;;;9.20;1.83;;;8.30;99.90;;;;;;5056110;28;20738;-45
2021/03/16 09:18:01;;;;;;;8.97;1.93;;;8.40;99.90;;;;;;5055679;28;20628;-44
2021/03/16 09:20:35;;;;;;;10.40;2.30;;;8.50;99.90;;;;;;5052406;28;20755;-46
2021/03/16 09:23:11;;;;;;;7.40;1.60;;;8.50;99.90;;;;;;5054469;28;20202;-46
2021/03/16 09:25:39;;;;;;;9.40;1.70;;;8.50;99.90;;;;;;5055462;28;20734;-46
2021/03/16 09:28:08;;;;;;;7.33;2.10;;;8.70;99.90;;;;;;5056830;28;20229;-46
2021/03/16 09:30:54;;;;;;;9.40;1.97;;;8.60;99.90;;;;;;5050363;28;20285;-45
2021/03/16 09:33:23;;;;;;;12.60;1.93;;;8.60;99.90;;;;;;5056956;28;20216;-46
2021/03/16 09:35:56;;;;;;;11.90;1.73;;;8.60;99.90;;;;;;5056578;28;20659;-45
2021/03/16 09:38:23;;;;;;;16.17;2.00;;;8.50;99.90;;;;;;5058501;28;20260;-46
2021/03/16 09:40:50;;;;;;;9.03;2.23;;;8.20;99.90;;;;;;5043149;28;20192;-46
2021/03/16 09:43:32;;;;;;;7.23;1.60;;;8.40;99.90;;;;;;5059873;28;20650;-44
2021/03/16 09:46:08;;;;;;;6.27;1.00;;;8.50;99.90;;;;;;5054604;28;20255;-44
2021/03/16 09:48:38;;;;;;;3.87;0.87;;;8.40;99.90;;;;;;5056058;28;20640;-45
2021/03/16 09:51:18;;;;;;;6.37;0.90;;;8.40;99.90;;;;;;5050956;28;20244;-45
2021/03/16 09:53:56;;;;;;;3.67;1.20;;;8.40;99.90;;;;;;5056249;28;20661;-46
2021/03/16 09:56:30;;;;;;;7.90;1.67;;;8.40;99.90;;;;;;5057239;28;20261;-45
2021/03/16 09:58:59;;;;;;;7.83;1.43;;;8.30;99.90;;;;;;5054098;28;20201;-45
2021/03/16 10:01:26;;;;;;;5.03;1.30;;;8.10;99.90;;;;;;5053191;28;20305;-45
2021/03/16 10:04:00;;;;;;;7.93;1.50;;;8.10;99.90;;;;;;5053327;28;20231;-45
2021/03/16 10:06:37;;;;;;;4.43;1.60;;;8.10;99.90;;;;;;5056059;28;20838;-45
2021/03/16 10:09:14;;;;;;;7.93;0.90;;;8.10;99.90;;;;;;5037606;28;20303;-45
2021/03/16 10:11:41;;;;;;;2.57;1.50;;;8.10;99.90;;;;;;5054669;28;20618;-45
2021/03/16 10:14:08;;;;;;;4.17;0.60;;;8.10;99.90;;;;;;5056530;28;20206;-45
2021/03/16 10:16:35;;;;;;;1.73;0.50;;;8.10;99.90;;;;;;5034806;28;20267;-45
2021/03/16 10:19:03;;;;;;;3.60;0.67;;;8.10;99.90;;;;;;5052799;28;20218;-45
2021/03/16 10:21:35;;;;;;;2.67;0.50;;;8.20;99.90;;;;;;5056319;28;20204;-45
2021/03/16 10:24:06;;;;;;;5.53;0.70;;;7.90;99.90;;;;;;5054334;28;20197;-45
2021/03/16 10:26:33;;;;;;;4.80;0.57;;;7.80;99.90;;;;;;5053618;28;20671;-45
2021/03/16 10:29:11;;;;;;;4.80;0.63;;;7.60;99.90;;;;;;5056074;28;20526;-45
2021/03/16 10:31:38;;;;;;;1.67;0.90;;;7.50;99.90;;;;;;5058130;28;20202;-45
2021/03/16 10:34:05;;;;;;;2.83;0.90;;;7.80;99.90;;;;;;5055048;28;20202;-45
2021/03/16 10:36:35;;;;;;;5.63;0.73;;;7.80;99.90;;;;;;5058410;28;20575;-45
2021/03/16 10:39:04;;;;;;;7.30;1.20;;;8.00;99.90;;;;;;5044305;28;20203;-45
2021/03/16 10:41:30;;;;;;;2.23;0.80;;;8.20;99.90;;;;;;5059528;28;20658;-44
2021/03/16 10:43:57;;;;;;;2.93;0.67;;;8.00;99.90;;;;;;5046806;28;20627;-43
2021/03/16 10:46:23;;;;;;;3.17;0.50;;;8.10;99.90;;;;;;5054829;28;20214;-44
2021/03/16 10:48:51;;;;;;;2.60;0.90;;;8.20;99.90;;;;;;5058022;28;20635;-44
2021/03/16 10:51:17;;;;;;;2.10;0.70;;;8.20;99.90;;;;;;5053008;28;20701;-43
2021/03/16 10:53:44;;;;;;;2.40;0.73;;;8.30;99.90;;;;;;5057089;28;20662;-44
2021/03/16 10:56:10;;;;;;;4.10;0.80;;;8.30;99.90;;;;;;5057846;28;20382;-45
2021/03/16 10:58:37;;;;;;;1.40;1.17;;;8.30;99.90;;;;;;5040604;28;20308;-46
2021/03/16 11:01:03;;;;;;;4.87;0.80;;;8.40;99.90;;;;;;5042680;28;20213;-47
2021/03/16 11:03:33;;;;;;;2.50;0.77;;;8.30;99.90;;;;;;5044947;28;20212;-46
2021/03/16 11:06:00;;;;;;;2.27;0.80;;;8.30;99.90;;;;;;5055999;28;20212;-45
2021/03/16 11:08:28;;;;;;;1.00;0.43;;;8.40;99.90;;;;;;5057184;28;20229;-44
2021/03/16 11:10:55;;;;;;;3.20;0.90;;;8.30;99.90;;;;;;5054697;28;20656;-45
2021/03/16 11:13:21;;;;;;;2.60;0.50;;;8.30;99.90;;;;;;5054225;28;20446;-46
2021/03/16 11:15:48;;;;;;;1.10;0.57;;;8.10;99.90;;;;;;5042793;28;20208;-44
2021/03/16 11:18:19;;;;;;;6.97;0.87;;;8.20;99.90;;;;;;5054341;28;20562;-45
2021/03/16 11:20:46;;;;;;;2.63;0.60;;;8.30;99.90;;;;;;5056233;28;20197;-45
2021/03/16 11:23:13;;;;;;;1.17;0.60;;;8.20;99.90;;;;;;5055656;28;20200;-45
2021/03/16 11:25:40;;;;;;;5.40;0.80;;;8.20;99.90;;;;;;5056081;28;20200;-46
2021/03/16 11:28:06;;;;;;;2.47;0.60;;;8.50;99.90;;;;;;5036482;28;20196;-45
2021/03/16 11:30:34;;;;;;;1.00;0.50;;;8.40;99.90;;;;;;5052640;28;20203;-45
2021/03/16 11:33:00;;;;;;;0.80;0.60;;;8.40;99.90;;;;;;5046038;28;20438;-44
2021/03/16 11:35:27;;;;;;;4.50;0.83;;;8.40;99.90;;;;;;5056011;28;20293;-50
2021/03/16 11:37:54;;;;;;;3.97;0.83;;;8.50;99.90;;;;;;5057849;28;20242;-48
2021/03/16 11:40:21;;;;;;;1.10;0.50;;;8.60;99.90;;;;;;5052099;28;20654;-49
2021/03/16 11:42:47;;;;;;;4.73;1.10;;;8.50;99.90;;;;;;5056424;28;20203;-55
2021/03/16 11:45:14;;;;;;;1.57;0.50;;;8.60;99.90;;;;;;5053578;28;20228;-48
2021/03/16 11:47:40;;;;;;;3.30;0.50;;;8.60;99.90;;;;;;5020680;28;20207;-49
2021/03/16 11:50:08;;;;;;;1.13;0.60;;;8.60;99.90;;;;;;5041995;28;20264;-50
2021/03/16 11:52:35;;;;;;;2.13;0.60;;;8.70;99.90;;;;;;5042656;28;20216;-49
2021/03/16 11:55:04;;;;;;;2.23;0.63;;;8.40;99.90;;;;;;5041076;28;20556;-49
2021/03/16 11:57:31;;;;;;;1.33;0.90;;;8.40;99.90;;;;;;5040297;28;20313;-49
2021/03/16 11:59:57;;;;;;;4.03;0.77;;;8.50;99.90;;;;;;5054332;28;20210;-49
2021/03/16 12:02:25;;;;;;;3.83;1.07;;;8.70;99.90;;;;;;5036374;28;20217;-50
2021/03/16 12:04:51;;;;;;;3.40;0.60;;;8.70;99.90;;;;;;5053440;28;20282;-50
2021/03/16 12:07:18;;;;;;;1.50;0.60;;;8.50;99.90;;;;;;5053709;28;20212;-48
2021/03/16 12:09:46;;;;;;;1.63;0.60;;;8.30;99.90;;;;;;5056947;28;20609;-50
2021/03/16 12:12:13;;;;;;;1.93;0.70;;;8.50;99.90;;;;;;5052294;28;20214;-49
2021/03/16 12:14:40;;;;;;;0.97;0.60;;;8.50;99.90;;;;;;5053634;28;20200;-50
2021/03/16 12:17:10;;;;;;;3.50;0.93;;;8.50;99.90;;;;;;5044149;28;20220;-48
2021/03/16 12:19:38;;;;;;;1.63;0.43;;;8.20;99.90;;;;;;5058669;28;20216;-49
2021/03/16 12:22:06;;;;;;;3.57;0.73;;;8.20;99.90;;;;;;5045664;28;20213;-49
2021/03/16 12:24:33;;;;;;;2.20;0.90;;;8.30;99.90;;;;;;5056991;28;20607;-50
2021/03/16 12:27:00;;;;;;;1.37;0.60;;;8.30;99.90;;;;;;5057551;28;20208;-50
2021/03/16 12:29:27;;;;;;;3.53;0.87;;;8.20;99.90;;;;;;5059855;28;20692;-53
2021/03/16 12:31:53;;;;;;;3.37;0.73;;;8.40;99.90;;;;;;5054202;28;20214;-51
2021/03/16 12:34:37;;;;;;;2.10;1.07;;;8.50;99.90;;;;;;5059257;28;20225;-52
2021/03/16 12:37:04;;;;;;;1.23;0.70;;;8.50;99.90;;;;;;5056487;28;20316;-51
2021/03/16 12:39:31;;;;;;;2.63;0.90;;;8.60;99.90;;;;;;5041037;28;20230;-53
2021/03/16 12:41:57;;;;;;;5.40;1.00;;;8.20;99.90;;;;;;5054928;28;20843;-53
2021/03/16 12:44:25;;;;;;;2.33;1.07;;;8.00;99.90;;;;;;5059487;28;20206;-56
2021/03/16 12:46:52;;;;;;;1.73;1.07;;;8.10;99.90;;;;;;5038948;28;20621;-53
2021/03/16 12:49:19;;;;;;;2.00;0.90;;;8.00;99.90;;;;;;5054107;28;20339;-52
2021/03/16 12:51:46;;;;;;;3.30;1.40;;;8.30;99.90;;;;;;5055120;28;20302;-52
2021/03/16 12:54:13;;;;;;;2.10;1.43;;;8.20;99.90;;;;;;5039750;28;20638;-51
2021/03/16 12:56:39;;;;;;;2.40;1.87;;;8.30;99.90;;;;;;5037544;28;20236;-50
2021/03/16 12:59:06;;;;;;;2.60;1.53;;;8.30;99.90;;;;;;5045997;28;20188;-50
2021/03/16 13:01:33;;;;;;;3.93;1.80;;;8.30;99.90;;;;;;5056041;28;20236;-51
2021/03/16 13:04:00;;;;;;;1.93;1.63;;;8.30;99.90;;;;;;5057272;28;20207;-49